Time;durP1;ratioP1;P1;durP2;ratioP2;P2;SDS_P1;SDS_P2;PMS_P1;PMS_P2;Temp;Humidity;BMP_temperature;BMP_pressure;BME280_temperature;BME280_humidity;BME280_pressure;Samples;Min_cycle;Max_cycle;Signal;HPM_P1;HPM_P2
2023/04/29 02:51:34;;;;;;;13.95;9.60;;;;;;;;;;5854583;23;20028;-83
2023/04/29 05:03:49;;;;;;;5.28;4.78;;;;;;;;;;5717551;23;20266;-80
2023/04/29 05:06:14;;;;;;;5.25;4.72;;;;;;;;;;5417009;22;20042;-80
2023/04/29 05:13:50;;;;;;;7.03;4.28;;;;;;;;;;5500427;23;20075;-80
2023/04/29 05:26:35;;;;;;;26.67;23.80;;;;;;;;;;5970222;22;21016;-79
2023/04/29 05:41:57;;;;;;;12.82;8.13;;;;;;;;;;5177483;23;20069;-86
2023/04/29 05:44:23;;;;;;;6.38;4.63;;;;;;;;;;5014824;28;20021;-89
2023/04/29 05:46:50;;;;;;;4.15;3.75;;;;;;;;;;5023380;28;20201;-88
2023/04/29 05:49:15;;;;;;;5.30;3.25;;;;;;;;;;5015717;28;20479;-84
2023/04/29 05:51:41;;;;;;;7.47;6.55;;;;;;;;;;4989244;28;20026;-84
2023/04/29 05:54:06;;;;;;;7.47;6.10;;;;;;;;;;5004170;28;20839;-85
2023/04/29 05:56:31;;;;;;;2.90;2.55;;;;;;;;;;4995008;28;20260;-84
2023/04/29 05:58:56;;;;;;;3.10;2.10;;;;;;;;;;5002527;28;20014;-83
2023/04/29 06:01:22;;;;;;;2.67;2.40;;;;;;;;;;4983143;28;20061;-85
2023/04/29 06:03:48;;;;;;;2.95;2.22;;;;;;;;;;4993847;28;20034;-84
2023/04/29 06:06:14;;;;;;;4.53;2.30;;;;;;;;;;5000650;28;20488;-82
2023/04/29 06:08:39;;;;;;;3.08;2.10;;;;;;;;;;4989279;28;20577;-83
2023/04/29 06:11:05;;;;;;;3.78;2.10;;;;;;;;;;4999492;28;20037;-82
2023/04/29 06:13:31;;;;;;;3.90;1.80;;;;;;;;;;4993039;28;20032;-83
2023/04/29 06:15:56;;;;;;;3.92;2.35;;;;;;;;;;5006160;28;20100;-84
2023/04/29 06:18:22;;;;;;;6.80;2.27;;;;;;;;;;5019489;28;20124;-83
2023/04/29 06:20:47;;;;;;;4.00;2.42;;;;;;;;;;5021523;28;20296;-85
2023/04/29 06:23:13;;;;;;;3.27;2.50;;;;;;;;;;5019260;28;20053;-86
2023/04/29 06:25:38;;;;;;;6.15;3.00;;;;;;;;;;5011668;28;20265;-85
2023/04/29 06:28:03;;;;;;;5.32;2.45;;;;;;;;;;5007132;28;20026;-84
2023/04/29 06:30:29;;;;;;;3.85;2.20;;;;;;;;;;5010510;28;20042;-85
2023/04/29 06:32:54;;;;;;;4.78;2.25;;;;;;;;;;5013104;28;20033;-84
2023/04/29 06:35:20;;;;;;;4.22;2.60;;;;;;;;;;4996466;28;20554;-84
2023/04/29 06:37:46;;;;;;;4.03;2.20;;;;;;;;;;5003546;28;20113;-85
2023/04/29 06:40:11;;;;;;;4.90;2.53;;;;;;;;;;4999644;28;20376;-84
2023/04/29 06:42:37;;;;;;;2.35;2.13;;;;;;;;;;5015082;28;20044;-84
2023/04/29 06:45:02;;;;;;;5.03;2.00;;;;;;;;;;4992861;28;20034;-85
2023/04/29 06:47:28;;;;;;;4.93;2.70;;;;;;;;;;5003681;28;20021;-83
2023/04/29 06:49:53;;;;;;;4.03;1.90;;;;;;;;;;5020288;28;20028;-82
2023/04/29 06:52:18;;;;;;;2.10;1.90;;;;;;;;;;5020317;28;20112;-83
2023/04/29 06:54:44;;;;;;;4.53;1.83;;;;;;;;;;5021542;28;20017;-83
2023/04/29 06:57:09;;;;;;;2.70;1.80;;;;;;;;;;5001523;28;20541;-82
2023/04/29 06:59:35;;;;;;;3.40;1.75;;;;;;;;;;5021434;28;20025;-82
2023/04/29 07:02:00;;;;;;;2.85;1.83;;;;;;;;;;5019677;28;20013;-83
2023/04/29 07:04:25;;;;;;;2.33;2.00;;;;;;;;;;5003786;28;20061;-85
2023/04/29 07:06:52;;;;;;;3.03;2.07;;;;;;;;;;5016933;28;20033;-83
2023/04/29 07:09:18;;;;;;;2.80;1.90;;;;;;;;;;5002767;28;20164;-83
2023/04/29 07:11:43;;;;;;;4.45;2.08;;;;;;;;;;5021109;28;20052;-83
2023/04/29 07:14:08;;;;;;;2.33;1.83;;;;;;;;;;5019902;28;20031;-84
2023/04/29 07:16:33;;;;;;;3.80;2.40;;;;;;;;;;5021496;28;20351;-84
2023/04/29 07:18:59;;;;;;;4.93;2.27;;;;;;;;;;5014818;28;20322;-83
2023/04/29 07:21:25;;;;;;;3.40;1.95;;;;;;;;;;5010855;28;20869;-87
2023/04/29 07:23:50;;;;;;;2.60;2.20;;;;;;;;;;5004055;28;20025;-88
2023/04/29 07:26:16;;;;;;;3.05;2.28;;;;;;;;;;5005205;28;20072;-88
2023/04/29 07:28:42;;;;;;;3.70;2.30;;;;;;;;;;5003166;28;20021;-86
2023/04/29 07:31:08;;;;;;;9.32;2.30;;;;;;;;;;5012249;28;20525;-84
2023/04/29 07:33:34;;;;;;;2.30;1.95;;;;;;;;;;5013300;28;20026;-85
2023/04/29 07:35:59;;;;;;;3.47;2.17;;;;;;;;;;5015209;28;20111;-85
2023/04/29 07:38:26;;;;;;;2.40;1.80;;;;;;;;;;5010672;28;20058;-86
2023/04/29 07:40:52;;;;;;;3.85;2.40;;;;;;;;;;5007390;28;20119;-86
2023/04/29 07:43:17;;;;;;;4.28;2.28;;;;;;;;;;5019652;28;20457;-84
2023/04/29 07:45:42;;;;;;;3.53;2.40;;;;;;;;;;5016786;28;20241;-85
2023/04/29 07:48:08;;;;;;;5.07;1.97;;;;;;;;;;4999572;28;20403;-84
2023/04/29 07:50:33;;;;;;;3.97;2.13;;;;;;;;;;4981251;28;20616;-83
2023/04/29 07:53:00;;;;;;;2.70;1.90;;;;;;;;;;4999666;28;20463;-85
2023/04/29 07:55:26;;;;;;;4.10;2.03;;;;;;;;;;5015261;28;20828;-83
2023/04/29 07:57:51;;;;;;;2.15;1.85;;;;;;;;;;5010918;28;20032;-87
2023/04/29 08:00:16;;;;;;;4.07;2.30;;;;;;;;;;5001617;28;20029;-85
2023/04/29 08:02:43;;;;;;;2.70;2.00;;;;;;;;;;5018729;28;20360;-84
2023/04/29 08:05:08;;;;;;;3.42;2.00;;;;;;;;;;5020597;28;20018;-85
2023/04/29 08:07:34;;;;;;;3.90;1.80;;;;;;;;;;5020024;28;20025;-84
2023/04/29 08:09:59;;;;;;;2.00;1.80;;;;;;;;;;5018025;28;20032;-86
2023/04/29 08:12:24;;;;;;;7.10;2.27;;;;;;;;;;5018526;28;20323;-86
2023/04/29 08:14:49;;;;;;;4.07;2.33;;;;;;;;;;5019387;28;20292;-84
2023/04/29 08:17:15;;;;;;;2.97;1.90;;;;;;;;;;4988227;28;20083;-84
2023/04/29 08:19:40;;;;;;;2.27;2.07;;;;;;;;;;5000345;28;20348;-83
2023/04/29 08:22:05;;;;;;;2.65;2.17;;;;;;;;;;5020276;28;20284;-85
2023/04/29 08:24:32;;;;;;;3.40;1.90;;;;;;;;;;5018120;28;20118;-84
2023/04/29 08:26:58;;;;;;;3.50;1.88;;;;;;;;;;5002683;28;20018;-82
2023/04/29 08:29:23;;;;;;;4.97;1.85;;;;;;;;;;5000538;28;20022;-82
2023/04/29 08:31:49;;;;;;;4.93;1.88;;;;;;;;;;5019070;28;20033;-81
2023/04/29 08:34:14;;;;;;;4.15;2.05;;;;;;;;;;5002274;28;20112;-85
2023/04/29 08:36:39;;;;;;;3.80;1.63;;;;;;;;;;4996174;28;20033;-82
2023/04/29 08:39:04;;;;;;;3.58;1.92;;;;;;;;;;4999015;28;20108;-82
2023/04/29 08:41:33;;;;;;;2.17;1.60;;;;;;;;;;5017361;28;20056;-82
2023/04/29 08:43:58;;;;;;;7.57;1.60;;;;;;;;;;5005256;28;20494;-83
2023/04/29 08:46:24;;;;;;;4.43;1.83;;;;;;;;;;4999534;28;20290;-81
2023/04/29 08:48:51;;;;;;;3.33;1.77;;;;;;;;;;4985832;28;20566;-81
2023/04/29 08:51:16;;;;;;;3.47;1.65;;;;;;;;;;5002020;28;20395;-81
2023/04/29 08:53:42;;;;;;;2.70;1.60;;;;;;;;;;5011321;28;20021;-86
2023/04/29 08:56:16;;;;;;;7.28;1.63;;;;;;;;;;4993678;28;20033;-81
2023/04/29 08:58:42;;;;;;;2.17;1.40;;;;;;;;;;4995397;28;20522;-81
2023/04/29 09:01:08;;;;;;;1.95;1.58;;;;;;;;;;5008889;28;20062;-81
2023/04/29 09:03:36;;;;;;;2.60;1.67;;;;;;;;;;4998776;28;20022;-82
2023/04/29 09:06:02;;;;;;;3.22;1.70;;;;;;;;;;5008188;28;20028;-85
2023/04/29 09:08:27;;;;;;;3.03;1.70;;;;;;;;;;4993201;28;20026;-83
2023/04/29 09:10:53;;;;;;;4.20;1.80;;;;;;;;;;5000787;28;20044;-82
2023/04/29 09:13:29;;;;;;;5.47;1.73;;;;;;;;;;5000005;28;20126;-83
2023/04/29 09:15:54;;;;;;;5.72;2.42;;;;;;;;;;5011885;28;20508;-83
2023/04/29 09:18:38;;;;;;;2.42;1.77;;;;;;;;;;5018485;28;20034;-83
2023/04/29 09:21:11;;;;;;;5.45;2.08;;;;;;;;;;5012003;28;20112;-81
2023/04/29 09:23:37;;;;;;;3.30;1.92;;;;;;;;;;4995290;28;20024;-85
2023/04/29 09:26:02;;;;;;;4.15;1.80;;;;;;;;;;4994364;28;20029;-83
2023/04/29 09:28:28;;;;;;;7.15;2.00;;;;;;;;;;4996704;28;20037;-83
2023/04/29 09:30:53;;;;;;;3.15;1.85;;;;;;;;;;5019430;28;20041;-83
2023/04/29 09:33:19;;;;;;;5.67;1.70;;;;;;;;;;5021540;28;20567;-83
2023/04/29 09:35:45;;;;;;;5.38;2.15;;;;;;;;;;5021993;28;20260;-83
2023/04/29 09:38:15;;;;;;;2.40;1.17;;;;;;;;;;5002197;28;20456;-84
2023/04/29 09:40:40;;;;;;;;;;;;;;;;;;5021814;28;20052;-82
2023/04/29 09:43:12;;;;;;;4.40;2.40;;;;;;;;;;5002093;28;20274;-83
2023/04/29 09:45:38;;;;;;;4.95;1.92;;;;;;;;;;5017744;28;20014;-84
2023/04/29 09:48:05;;;;;;;2.67;1.75;;;;;;;;;;5020794;28;20018;-84
2023/04/29 09:50:31;;;;;;;2.67;1.60;;;;;;;;;;5001740;28;20108;-83
2023/04/29 09:52:56;;;;;;;3.55;1.10;;;;;;;;;;5004185;28;20029;-82
2023/04/29 09:55:22;;;;;;;3.28;1.38;;;;;;;;;;5020102;28;20468;-82
2023/04/29 09:57:47;;;;;;;2.00;1.50;;;;;;;;;;5004333;28;20025;-82
2023/04/29 10:00:13;;;;;;;2.00;1.50;;;;;;;;;;5002921;28;20018;-83
2023/04/29 10:02:41;;;;;;;3.97;1.50;;;;;;;;;;5021253;28;20335;-84
2023/04/29 10:05:06;;;;;;;1.58;1.23;;;;;;;;;;5022445;28;20495;-83
2023/04/29 10:07:31;;;;;;;2.72;1.38;;;;;;;;;;5019214;28;20048;-84
2023/04/29 10:09:57;;;;;;;3.88;1.10;;;;;;;;;;5022711;28;20085;-82
2023/04/29 10:12:23;;;;;;;2.08;1.33;;;;;;;;;;5021494;28;20478;-83
2023/04/29 10:14:56;;;;;;;3.25;1.55;;;;;;;;;;5021924;28;20062;-84
2023/04/29 10:17:42;;;;;;;1.92;1.35;;;;;;;;;;5002794;28;20051;-82
2023/04/29 10:20:08;;;;;;;3.28;1.40;;;;;;;;;;5019423;28;20140;-83
2023/04/29 10:22:46;;;;;;;5.05;1.58;;;;;;;;;;5020256;28;20183;-83
2023/04/29 10:25:13;;;;;;;2.58;1.50;;;;;;;;;;5018584;28;20056;-82
2023/04/29 10:27:41;;;;;;;5.43;1.77;;;;;;;;;;5004123;28;20060;-82
2023/04/29 10:30:08;;;;;;;3.33;1.30;;;;;;;;;;5002997;28;20025;-83
2023/04/29 10:32:33;;;;;;;2.42;1.23;;;;;;;;;;5014546;28;20105;-82
2023/04/29 10:34:59;;;;;;;3.13;1.20;;;;;;;;;;4987017;28;20128;-83
2023/04/29 10:37:25;;;;;;;1.30;1.15;;;;;;;;;;5021114;28;20303;-84
2023/04/29 10:40:09;;;;;;;5.40;1.45;;;;;;;;;;5021155;28;20016;-82
2023/04/29 10:42:55;;;;;;;1.83;1.35;;;;;;;;;;5016708;28;20194;-82
2023/04/29 10:45:31;;;;;;;2.97;1.10;;;;;;;;;;5001589;28;20040;-85
2023/04/29 10:48:04;;;;;;;2.00;1.00;;;;;;;;;;5000575;28;20063;-83
2023/04/29 10:50:36;;;;;;;2.58;1.00;;;;;;;;;;5000504;28;20530;-84
2023/04/29 10:53:02;;;;;;;4.35;1.20;;;;;;;;;;5021290;28;20029;-84
2023/04/29 10:55:27;;;;;;;3.25;1.10;;;;;;;;;;5001733;28;20020;-86
2023/04/29 10:57:55;;;;;;;2.00;1.25;;;;;;;;;;5003366;28;20068;-86
2023/04/29 11:00:40;;;;;;;3.60;1.00;;;;;;;;;;5001810;28;20047;-84
2023/04/29 11:03:06;;;;;;;2.15;1.08;;;;;;;;;;5020108;28;20045;-84
2023/04/29 11:05:32;;;;;;;1.33;1.00;;;;;;;;;;5003375;28;20025;-84
2023/04/29 11:08:11;;;;;;;1.27;0.98;;;;;;;;;;5019615;28;20276;-85
2023/04/29 11:10:37;;;;;;;;;;;;;;;;;;5017488;28;20033;-85
2023/04/29 11:13:22;;;;;;;3.75;1.77;;;;;;;;;;5020366;28;19905;-84
2023/04/29 11:15:47;;;;;;;3.03;1.25;;;;;;;;;;5021366;28;20056;-84
2023/04/29 11:18:13;;;;;;;4.60;1.38;;;;;;;;;;4996606;28;20033;-88
2023/04/29 11:20:57;;;;;;;2.92;1.30;;;;;;;;;;5015600;28;20399;-86
2023/04/29 11:23:23;;;;;;;1.88;1.38;;;;;;;;;;4999765;28;20406;-84
2023/04/29 11:25:49;;;;;;;2.10;1.80;;;;;;;;;;5011778;28;20022;-83
2023/04/29 11:28:14;;;;;;;1.10;1.00;;;;;;;;;;4992383;28;20030;-82
2023/04/29 11:30:40;;;;;;;5.18;1.23;;;;;;;;;;5011896;28;20025;-81
2023/04/29 11:33:07;;;;;;;1.38;1.00;;;;;;;;;;4995045;28;20156;-81
2023/04/29 11:35:32;;;;;;;4.82;1.20;;;;;;;;;;4996963;28;20069;-82
2023/04/29 11:37:58;;;;;;;2.42;1.10;;;;;;;;;;5001902;28;20383;-82
2023/04/29 11:40:24;;;;;;;3.17;1.67;;;;;;;;;;5002185;28;20112;-81
2023/04/29 11:42:50;;;;;;;3.85;1.33;;;;;;;;;;4998732;28;20089;-82
2023/04/29 11:45:18;;;;;;;4.05;1.60;;;;;;;;;;5008468;28;20025;-82
2023/04/29 11:47:45;;;;;;;2.17;1.30;;;;;;;;;;5010439;28;20037;-79
2023/04/29 11:50:10;;;;;;;2.45;1.48;;;;;;;;;;5020158;28;20025;-81
2023/04/29 11:52:37;;;;;;;2.65;1.17;;;;;;;;;;5019215;28;20025;-79
2023/04/29 11:55:04;;;;;;;2.50;1.23;;;;;;;;;;5001941;28;20040;-79
2023/04/29 11:57:29;;;;;;;2.70;1.50;;;;;;;;;;5016636;28;20577;-82
2023/04/29 11:59:56;;;;;;;3.63;1.67;;;;;;;;;;4993842;28;20111;-80
2023/04/29 12:02:22;;;;;;;2.75;1.17;;;;;;;;;;4988922;28;20529;-79
2023/04/29 12:04:47;;;;;;;2.40;1.50;;;;;;;;;;4994917;28;20025;-79
2023/04/29 12:07:13;;;;;;;3.70;1.60;;;;;;;;;;5020294;28;20024;-79
2023/04/29 12:09:45;;;;;;;4.43;1.58;;;;;;;;;;5000555;28;20033;-80
2023/04/29 12:12:11;;;;;;;4.03;1.95;;;;;;;;;;5002502;28;20537;-79
2023/04/29 12:14:37;;;;;;;5.07;1.60;;;;;;;;;;5019636;28;20033;-80
2023/04/29 12:17:02;;;;;;;2.92;2.05;;;;;;;;;;5003189;28;20044;-79
2023/04/29 12:19:29;;;;;;;4.43;2.00;;;;;;;;;;5001611;28;20779;-80
2023/04/29 12:21:57;;;;;;;4.18;2.00;;;;;;;;;;5014339;28;20029;-80
2023/04/29 12:24:23;;;;;;;3.10;2.08;;;;;;;;;;5017780;28;20518;-80
2023/04/29 12:26:48;;;;;;;4.63;1.98;;;;;;;;;;5022455;28;20096;-79
2023/04/29 12:29:14;;;;;;;3.53;1.67;;;;;;;;;;5023196;28;20031;-79
2023/04/29 12:31:40;;;;;;;2.20;1.73;;;;;;;;;;5002218;28;20705;-80
2023/04/29 12:34:06;;;;;;;2.75;1.60;;;;;;;;;;4997454;28;20025;-80
2023/04/29 12:36:32;;;;;;;2.25;1.63;;;;;;;;;;5020553;28;20502;-79
2023/04/29 12:38:57;;;;;;;3.90;1.73;;;;;;;;;;5014457;28;20513;-81
2023/04/29 12:41:39;;;;;;;2.97;1.50;;;;;;;;;;5001942;28;20482;-80
2023/04/29 12:44:05;;;;;;;5.72;1.75;;;;;;;;;;5019311;28;20424;-78
2023/04/29 12:46:40;;;;;;;4.68;2.20;;;;;;;;;;5022862;28;20095;-80
2023/04/29 12:49:06;;;;;;;3.70;2.05;;;;;;;;;;5015750;28;20025;-80
2023/04/29 12:51:32;;;;;;;3.92;2.08;;;;;;;;;;5023040;28;20347;-79
2023/04/29 12:54:02;;;;;;;4.90;2.22;;;;;;;;;;5005419;28;20030;-78
2023/04/29 12:56:28;;;;;;;3.72;2.05;;;;;;;;;;5017307;28;20009;-78
2023/04/29 12:58:53;;;;;;;7.07;1.90;;;;;;;;;;5005222;28;20042;-79
2023/04/29 13:01:19;;;;;;;4.38;2.15;;;;;;;;;;4993940;28;20038;-81
2023/04/29 13:03:44;;;;;;;3.90;1.80;;;;;;;;;;4993994;28;20132;-79
2023/04/29 13:06:10;;;;;;;6.57;2.20;;;;;;;;;;5020773;28;20466;-81
2023/04/29 13:08:35;;;;;;;2.58;1.55;;;;;;;;;;5016392;28;20426;-80
2023/04/29 13:11:00;;;;;;;7.20;1.85;;;;;;;;;;5004129;28;20033;-81
2023/04/29 13:13:26;;;;;;;3.38;2.00;;;;;;;;;;5002231;28;20033;-83
2023/04/29 13:15:51;;;;;;;4.22;2.20;;;;;;;;;;5016670;28;20040;-80
2023/04/29 13:18:17;;;;;;;2.97;1.63;;;;;;;;;;5020868;28;20048;-80
2023/04/29 13:20:42;;;;;;;2.28;1.73;;;;;;;;;;5021459;28;20107;-82
2023/04/29 13:23:08;;;;;;;5.30;2.10;;;;;;;;;;5003388;28;20029;-79
2023/04/29 13:25:33;;;;;;;5.18;1.70;;;;;;;;;;5021837;28;20033;-81
2023/04/29 13:27:58;;;;;;;8.27;2.10;;;;;;;;;;5021394;28;20108;-81
2023/04/29 13:30:24;;;;;;;4.78;1.90;;;;;;;;;;5012119;28;20028;-81
2023/04/29 13:32:49;;;;;;;3.05;1.65;;;;;;;;;;5018477;28;20427;-79
2023/04/29 13:35:14;;;;;;;6.78;2.17;;;;;;;;;;5002991;28;20036;-77
2023/04/29 13:37:40;;;;;;;3.10;1.80;;;;;;;;;;5022688;28;20049;-80
2023/04/29 13:40:06;;;;;;;4.07;2.08;;;;;;;;;;5019920;28;20029;-82
2023/04/29 13:42:31;;;;;;;2.55;2.00;;;;;;;;;;5004402;28;20045;-82
2023/04/29 13:44:56;;;;;;;5.13;1.98;;;;;;;;;;5017984;28;20028;-79
2023/04/29 13:47:22;;;;;;;6.83;3.17;;;;;;;;;;5022331;28;20028;-82
2023/04/29 13:49:47;;;;;;;5.20;2.88;;;;;;;;;;4988674;28;20303;-80
2023/04/29 13:52:13;;;;;;;3.83;2.97;;;;;;;;;;5021557;28;20025;-79
2023/04/29 13:54:38;;;;;;;5.22;3.00;;;;;;;;;;5021594;28;20056;-79
2023/04/29 13:57:04;;;;;;;8.10;4.95;;;;;;;;;;5019666;28;20073;-77
2023/04/29 13:59:33;;;;;;;6.38;3.80;;;;;;;;;;5002782;28;20120;-76
2023/04/29 14:01:58;;;;;;;9.40;4.90;;;;;;;;;;4989160;28;20072;-78
2023/04/29 14:04:24;;;;;;;4.38;2.42;;;;;;;;;;5021309;28;20033;-80
2023/04/29 14:06:51;;;;;;;12.75;4.15;;;;;;;;;;5020174;28;20025;-78
2023/04/29 14:09:18;;;;;;;6.80;3.58;;;;;;;;;;5021151;28;20414;-79
2023/04/29 14:11:44;;;;;;;5.15;3.33;;;;;;;;;;5003390;28;20028;-80
2023/04/29 14:14:09;;;;;;;6.22;3.30;;;;;;;;;;5002150;28;20030;-78
2023/04/29 14:16:34;;;;;;;6.97;3.50;;;;;;;;;;5021245;28;20020;-80
2023/04/29 14:19:00;;;;;;;3.33;2.88;;;;;;;;;;5019788;28;20999;-81
2023/04/29 14:21:26;;;;;;;6.30;2.60;;;;;;;;;;5002586;28;20030;-79
2023/04/29 14:23:51;;;;;;;3.03;2.10;;;;;;;;;;5001930;28;20075;-80
2023/04/29 14:26:16;;;;;;;3.15;2.20;;;;;;;;;;5021210;28;20020;-79
2023/04/29 14:28:42;;;;;;;2.70;2.07;;;;;;;;;;5020040;28;20040;-81
2023/04/29 14:31:07;;;;;;;4.15;2.13;;;;;;;;;;5020190;28;20310;-81
2023/04/29 14:33:32;;;;;;;2.47;1.60;;;;;;;;;;5002321;28;20029;-82
2023/04/29 14:35:59;;;;;;;2.17;1.73;;;;;;;;;;5016382;28;20096;-83
2023/04/29 14:38:25;;;;;;;4.22;2.28;;;;;;;;;;5001733;28;20522;-83
2023/04/29 14:40:50;;;;;;;2.78;2.13;;;;;;;;;;5000597;28;20084;-81
2023/04/29 14:43:16;;;;;;;5.03;1.90;;;;;;;;;;5021308;28;20029;-78
2023/04/29 14:45:42;;;;;;;3.35;1.60;;;;;;;;;;5018672;28;20502;-79
2023/04/29 14:48:08;;;;;;;5.30;1.70;;;;;;;;;;5020799;28;20017;-80
2023/04/29 14:50:33;;;;;;;3.85;1.98;;;;;;;;;;5016906;28;20033;-83
2023/04/29 14:53:00;;;;;;;3.55;1.85;;;;;;;;;;5008366;28;20554;-78
2023/04/29 14:55:25;;;;;;;2.80;1.85;;;;;;;;;;5020392;28;20033;-81
2023/04/29 14:57:50;;;;;;;2.42;1.75;;;;;;;;;;5009322;28;20037;-79
2023/04/29 15:00:16;;;;;;;2.92;1.73;;;;;;;;;;4995566;28;20036;-78
2023/04/29 15:02:41;;;;;;;2.95;1.90;;;;;;;;;;4998817;28;20029;-77
2023/04/29 15:05:06;;;;;;;3.37;1.57;;;;;;;;;;5016274;28;20025;-77
2023/04/29 15:07:32;;;;;;;2.63;1.90;;;;;;;;;;5009469;28;20785;-79
2023/04/29 15:09:57;;;;;;;3.97;1.70;;;;;;;;;;5019059;28;20435;-81
2023/04/29 15:12:23;;;;;;;3.90;1.65;;;;;;;;;;5018671;28;20037;-79
2023/04/29 15:14:48;;;;;;;3.42;1.80;;;;;;;;;;5000490;28;20021;-80
2023/04/29 15:17:13;;;;;;;2.78;2.08;;;;;;;;;;5002204;28;20491;-82
2023/04/29 15:19:39;;;;;;;4.72;1.58;;;;;;;;;;4998177;28;20080;-80
2023/04/29 15:22:04;;;;;;;1.88;1.42;;;;;;;;;;5002051;28;20025;-81
2023/04/29 15:24:29;;;;;;;1.75;1.63;;;;;;;;;;5008835;28;20028;-80
2023/04/29 15:26:55;;;;;;;2.65;1.60;;;;;;;;;;5017511;28;20059;-83
2023/04/29 15:29:20;;;;;;;3.33;1.58;;;;;;;;;;5018992;28;20546;-79
2023/04/29 15:31:46;;;;;;;3.20;2.38;;;;;;;;;;5017504;28;20410;-80
2023/04/29 15:34:11;;;;;;;3.45;1.90;;;;;;;;;;5001724;28;20468;-80
2023/04/29 15:36:36;;;;;;;2.42;1.88;;;;;;;;;;5016999;28;20025;-81
2023/04/29 15:39:02;;;;;;;2.08;1.60;;;;;;;;;;5001314;28;20041;-81
2023/04/29 15:41:27;;;;;;;2.10;1.90;;;;;;;;;;5015312;28;20583;-83
2023/04/29 15:43:53;;;;;;;2.60;1.77;;;;;;;;;;4995699;28;20042;-81
2023/04/29 15:46:19;;;;;;;2.85;2.17;;;;;;;;;;5008174;28;20026;-83
2023/04/29 15:48:44;;;;;;;4.45;2.00;;;;;;;;;;5007279;28;20430;-84
2023/04/29 15:51:12;;;;;;;4.20;2.05;;;;;;;;;;4997564;28;20044;-81
2023/04/29 15:53:38;;;;;;;3.88;2.28;;;;;;;;;;5023300;28;20024;-78
2023/04/29 15:56:03;;;;;;;3.92;2.13;;;;;;;;;;4998454;28;20029;-81
2023/04/29 15:58:28;;;;;;;8.98;2.33;;;;;;;;;;5012442;28;20918;-84
2023/04/29 16:00:54;;;;;;;3.23;2.40;;;;;;;;;;5005727;28;20014;-78
2023/04/29 16:03:20;;;;;;;2.47;2.00;;;;;;;;;;5050333;28;20352;-79
2023/04/29 16:05:45;;;;;;;8.15;2.80;;;;;;;;;;5045500;28;20088;-79
2023/04/29 16:08:10;;;;;;;5.05;2.20;;;;;;;;;;5027905;28;20032;-80
2023/04/29 16:10:36;;;;;;;3.40;2.23;;;;;;;;;;5031338;28;20093;-79
2023/04/29 16:13:01;;;;;;;2.78;2.30;;;;;;;;;;5036614;28;21162;-79
2023/04/29 16:15:28;;;;;;;4.45;2.30;;;;;;;;;;5041659;28;20017;-79
2023/04/29 16:20:28;;;;;;;5.93;3.22;;;;;;;;;;5595701;22;20133;-86
2023/04/29 16:22:53;;;;;;;4.38;2.42;;;;;;;;;;5020045;28;20541;-86
2023/04/29 16:25:19;;;;;;;4.05;2.22;;;;;;;;;;5021448;28;20026;-85
2023/04/29 16:27:44;;;;;;;6.75;3.00;;;;;;;;;;5016122;28;20041;-85
2023/04/29 16:30:10;;;;;;;4.25;2.53;;;;;;;;;;4999670;28;20099;-86
2023/04/29 16:32:35;;;;;;;3.85;2.83;;;;;;;;;;5018714;28;20542;-86
2023/04/29 16:35:00;;;;;;;5.93;2.90;;;;;;;;;;5017660;28;20031;-86
2023/04/29 16:37:25;;;;;;;6.97;2.50;;;;;;;;;;5019088;28;20036;-86
2023/04/29 16:39:51;;;;;;;3.85;2.75;;;;;;;;;;4997949;28;20029;-85
2023/04/29 16:42:16;;;;;;;3.13;2.50;;;;;;;;;;5011324;28;20423;-87
2023/04/29 16:44:42;;;;;;;3.90;2.78;;;;;;;;;;4998988;28;20053;-86
2023/04/29 16:47:07;;;;;;;6.53;3.20;;;;;;;;;;5013505;28;20114;-85
2023/04/29 16:49:33;;;;;;;6.20;3.00;;;;;;;;;;4995485;28;20030;-86
2023/04/29 16:51:58;;;;;;;3.80;3.40;;;;;;;;;;5005248;28;20459;-85
2023/04/29 16:54:25;;;;;;;6.18;5.22;;;;;;;;;;5011223;28;20082;-85
2023/04/29 16:56:50;;;;;;;7.72;6.93;;;;;;;;;;5010983;28;20022;-86
2023/04/29 16:59:15;;;;;;;7.50;6.45;;;;;;;;;;5013402;28;20049;-85
2023/04/29 17:01:41;;;;;;;6.00;4.47;;;;;;;;;;4997090;28;20552;-86
2023/04/29 17:04:07;;;;;;;5.47;3.67;;;;;;;;;;5020312;28;20036;-86
2023/04/29 17:06:33;;;;;;;4.78;3.72;;;;;;;;;;5000495;28;20032;-85
2023/04/29 17:08:59;;;;;;;16.80;10.82;;;;;;;;;;5017659;28;20022;-80
2023/04/29 17:11:25;;;;;;;5.70;3.67;;;;;;;;;;5042732;28;20033;-81
2023/04/29 17:13:50;;;;;;;7.25;4.80;;;;;;;;;;5055533;28;20097;-81
2023/04/29 17:16:15;;;;;;;11.43;5.10;;;;;;;;;;5030863;28;20029;-84
2023/04/29 17:18:41;;;;;;;39.30;18.40;;;;;;;;;;5013181;28;20041;-84
2023/04/29 17:21:06;;;;;;;32.70;19.23;;;;;;;;;;5011860;28;20046;-86
2023/04/29 17:23:31;;;;;;;33.20;17.20;;;;;;;;;;5020245;28;20371;-85
2023/04/29 17:25:57;;;;;;;45.60;24.02;;;;;;;;;;5014899;28;20288;-84
2023/04/29 17:28:22;;;;;;;28.42;15.88;;;;;;;;;;5002796;28;20184;-86
2023/04/29 17:30:48;;;;;;;7.90;5.20;;;;;;;;;;5012131;28;20172;-83
2023/04/29 17:33:13;;;;;;;5.80;4.25;;;;;;;;;;5057474;28;20065;-82
2023/04/29 17:35:39;;;;;;;30.90;24.90;;;;;;;;;;5614165;22;20676;-82
2023/04/29 17:38:05;;;;;;;9.38;8.35;;;;;;;;;;5018639;28;20044;-84
2023/04/29 17:40:30;;;;;;;11.15;9.40;;;;;;;;;;5006941;28;20025;-84
2023/04/29 17:42:55;;;;;;;7.10;6.40;;;;;;;;;;5023922;28;20395;-82
2023/04/29 17:45:21;;;;;;;5.55;4.22;;;;;;;;;;5030383;28;20017;-81
2023/04/29 17:47:47;;;;;;;4.85;4.45;;;;;;;;;;5530101;22;20072;-81
2023/04/29 17:50:12;;;;;;;4.28;3.63;;;;;;;;;;5039680;28;20017;-80
2023/04/29 17:52:37;;;;;;;8.75;4.88;;;;;;;;;;5039037;28;20033;-81
2023/04/29 17:55:03;;;;;;;12.77;8.32;;;;;;;;;;5022390;28;20018;-81
2023/04/29 17:57:28;;;;;;;6.43;5.82;;;;;;;;;;5038778;28;20033;-81
2023/04/29 17:59:53;;;;;;;5.65;4.80;;;;;;;;;;5023105;28;20002;-80
2023/04/29 18:02:19;;;;;;;9.55;7.07;;;;;;;;;;5039557;28;20030;-80
2023/04/29 18:04:45;;;;;;;10.15;6.05;;;;;;;;;;5039585;28;20020;-80
2023/04/29 18:07:10;;;;;;;4.82;4.32;;;;;;;;;;5022528;28;20026;-80
2023/04/29 18:09:35;;;;;;;4.18;3.80;;;;;;;;;;5019967;28;20006;-79
2023/04/29 18:12:01;;;;;;;2.93;2.70;;;;;;;;;;5036174;28;20026;-79
2023/04/29 18:14:27;;;;;;;3.55;2.83;;;;;;;;;;5008302;28;20277;-80
2023/04/29 18:16:53;;;;;;;4.63;2.22;;;;;;;;;;5024905;28;20036;-80
2023/04/29 18:19:18;;;;;;;2.75;2.40;;;;;;;;;;5016688;28;20057;-79
2023/04/29 18:21:44;;;;;;;4.10;3.78;;;;;;;;;;5032912;28;20022;-81
2023/04/29 18:24:10;;;;;;;18.05;11.75;;;;;;;;;;5010331;28;20029;-81
2023/04/29 18:26:35;;;;;;;5.15;4.32;;;;;;;;;;5028686;28;20022;-81
2023/04/29 18:29:00;;;;;;;6.78;4.28;;;;;;;;;;5012881;28;20018;-80
2023/04/29 18:31:25;;;;;;;6.78;5.55;;;;;;;;;;5006853;28;20038;-80
2023/04/29 18:33:51;;;;;;;12.77;10.20;;;;;;;;;;5015271;28;20841;-80
2023/04/29 18:36:16;;;;;;;10.30;9.40;;;;;;;;;;4995414;28;20258;-80
2023/04/29 18:38:42;;;;;;;9.65;7.88;;;;;;;;;;5021156;28;20030;-80
2023/04/29 18:41:07;;;;;;;6.93;6.32;;;;;;;;;;5012537;28;20005;-80
2023/04/29 18:43:33;;;;;;;5.97;4.80;;;;;;;;;;5027089;28;20046;-80
2023/04/29 18:45:59;;;;;;;7.90;7.10;;;;;;;;;;5036175;28;20106;-80
2023/04/29 18:48:26;;;;;;;8.50;7.80;;;;;;;;;;5002440;28;20042;-79
2023/04/29 18:50:52;;;;;;;8.73;7.93;;;;;;;;;;5023835;28;20041;-81
2023/04/29 18:53:18;;;;;;;5.25;4.75;;;;;;;;;;5013689;28;20026;-79
2023/04/29 18:55:43;;;;;;;4.53;3.10;;;;;;;;;;4992758;28;20084;-78
2023/04/29 18:58:09;;;;;;;4.32;3.92;;;;;;;;;;4995139;28;20038;-79
2023/04/29 19:00:34;;;;;;;8.70;5.82;;;;;;;;;;5007454;28;20438;-79
2023/04/29 19:02:59;;;;;;;11.63;6.63;;;;;;;;;;4997083;28;20518;-78
2023/04/29 19:05:25;;;;;;;6.03;5.57;;;;;;;;;;5006635;28;20030;-78
2023/04/29 19:07:50;;;;;;;5.40;5.00;;;;;;;;;;4978484;28;20049;-77
2023/04/29 19:10:15;;;;;;;7.18;5.57;;;;;;;;;;5004962;28;20022;-78
2023/04/29 19:12:41;;;;;;;3.67;3.37;;;;;;;;;;4996249;28;21581;-79
2023/04/29 19:15:07;;;;;;;3.75;3.42;;;;;;;;;;5014140;28;20287;-79
2023/04/29 19:17:32;;;;;;;3.22;2.92;;;;;;;;;;5016278;28;20026;-78
2023/04/29 19:19:57;;;;;;;3.83;3.53;;;;;;;;;;4999343;28;20018;-79
2023/04/29 19:22:23;;;;;;;12.88;8.05;;;;;;;;;;5014325;28;20022;-79
2023/04/29 19:24:48;;;;;;;14.30;11.77;;;;;;;;;;5013654;28;20044;-79
2023/04/29 19:27:13;;;;;;;23.75;17.35;;;;;;;;;;5012928;28;20499;-79
2023/04/29 19:29:39;;;;;;;33.30;23.08;;;;;;;;;;4993485;28;20224;-79
2023/04/29 19:32:04;;;;;;;22.23;17.15;;;;;;;;;;4983285;28;20091;-78
2023/04/29 19:34:29;;;;;;;14.02;10.30;;;;;;;;;;5011295;28;20055;-79
2023/04/29 19:36:55;;;;;;;11.07;8.60;;;;;;;;;;5011152;28;20525;-79
2023/04/29 19:39:20;;;;;;;9.25;7.82;;;;;;;;;;4996524;28;20111;-79
2023/04/29 19:41:45;;;;;;;5.57;5.07;;;;;;;;;;5019869;28;20048;-78
2023/04/29 19:44:11;;;;;;;4.30;3.78;;;;;;;;;;5023150;28;20065;-79
2023/04/29 19:46:36;;;;;;;6.00;4.32;;;;;;;;;;5022166;28;20048;-78
2023/04/29 19:49:02;;;;;;;7.28;4.22;;;;;;;;;;5024187;28;20064;-78
2023/04/29 19:51:27;;;;;;;4.88;4.18;;;;;;;;;;5025857;28;20048;-80
2023/04/29 19:53:55;;;;;;;5.50;4.07;;;;;;;;;;5013172;28;20041;-78
2023/04/29 19:56:20;;;;;;;7.18;3.95;;;;;;;;;;5003715;28;20014;-79
2023/04/29 19:58:46;;;;;;;4.90;4.50;;;;;;;;;;4992006;28;20097;-79
2023/04/29 20:01:11;;;;;;;5.20;4.78;;;;;;;;;;4988504;28;20392;-79
2023/04/29 20:03:38;;;;;;;10.65;4.53;;;;;;;;;;5008819;28;20516;-78
2023/04/29 20:06:03;;;;;;;6.75;4.97;;;;;;;;;;4990199;28;20104;-78
2023/04/29 20:08:28;;;;;;;5.20;4.70;;;;;;;;;;5009329;28;20053;-78